createdAt,value
2018-02-22T00:00:05.513Z,70.48
2018-02-22T00:01:05.514Z,70.57
2018-02-22T00:02:05.514Z,70.76
2018-02-22T00:03:05.511Z,71.04
2018-02-22T00:04:05.510Z,71.04
2018-02-22T00:05:05.512Z,71.04
2018-02-22T00:06:05.512Z,71.33
2018-02-22T00:07:05.513Z,71.33
2018-02-22T00:08:05.518Z,71.33
2018-02-22T00:09:05.518Z,71.23
2018-02-22T00:10:05.519Z,71.23
2018-02-22T00:11:05.515Z,71.70
2018-02-22T00:12:05.514Z,72.64
2018-02-22T00:13:05.521Z,73.11
2018-02-22T00:14:05.521Z,72.55
2018-02-22T00:15:05.517Z,73.11
2018-02-22T00:16:05.520Z,73.87
2018-02-22T00:17:05.523Z,73.11
2018-02-22T00:18:05.516Z,72.92
2018-02-22T00:19:05.519Z,72.74
2018-02-22T00:20:05.515Z,72.36
2018-02-22T00:21:05.522Z,72.17
2018-02-22T00:22:05.519Z,72.27
2018-02-22T00:23:05.519Z,72.74
2018-02-22T00:24:05.519Z,72.83
2018-02-22T00:25:05.527Z,72.55
2018-02-22T00:26:05.525Z,72.74
2018-02-22T00:27:05.520Z,72.55
2018-02-22T00:28:05.524Z,73.58
2018-02-22T00:29:05.520Z,74.05
2018-02-22T00:30:05.527Z,74.53
2018-02-22T00:31:05.523Z,75.19
2018-02-22T00:32:05.520Z,75.00
2018-02-22T00:33:05.520Z,75.56
2018-02-22T00:34:05.522Z,74.62
2018-02-22T00:35:05.529Z,75.00
2018-02-22T00:36:05.525Z,74.81
2018-02-22T00:37:05.522Z,74.81
2018-02-22T00:38:05.530Z,74.81
2018-02-22T00:39:05.524Z,74.90
2018-02-22T00:40:05.524Z,74.62
2018-02-22T00:41:05.523Z,76.22
2018-02-22T00:42:05.523Z,78.96
2018-02-22T00:43:05.530Z,79.80
2018-02-22T00:44:05.531Z,81.03
2018-02-22T00:45:05.530Z,81.22
2018-02-22T00:46:05.526Z,81.12
2018-02-22T00:47:05.530Z,80.56
2018-02-22T00:48:05.530Z,80.37
2018-02-22T00:49:05.525Z,81.59
2018-02-22T00:50:05.525Z,81.88
2018-02-22T00:51:05.533Z,81.78
2018-02-22T00:52:05.525Z,82.35
2018-02-22T00:53:05.530Z,82.92
2018-02-22T00:54:05.531Z,82.35
2018-02-22T00:55:05.532Z,81.78
2018-02-22T00:56:05.525Z,80.74
2018-02-22T00:57:05.532Z,80.27
2018-02-22T00:58:05.526Z,79.43
2018-02-22T00:59:05.533Z,78.58
2018-02-22T01:00:05.526Z,78.49
2018-02-22T01:01:05.526Z,77.45
2018-02-22T01:02:05.527Z,77.17
2018-02-22T01:03:05.528Z,77.55
2018-02-22T01:04:05.527Z,77.55
2018-02-22T01:05:05.535Z,77.83
2018-02-22T01:06:05.527Z,77.45
2018-02-22T01:07:05.533Z,77.26
2018-02-22T01:08:05.532Z,77.64
2018-02-22T01:09:05.535Z,78.30
2018-02-22T01:10:05.533Z,78.49
2018-02-22T01:11:05.528Z,78.86
2018-02-22T01:12:05.531Z,79.24
2018-02-22T01:13:05.528Z,79.24
2018-02-22T01:14:05.535Z,79.14
2018-02-22T01:15:05.533Z,79.05
2018-02-22T01:16:05.533Z,78.49
2018-02-22T01:17:05.532Z,79.52
2018-02-22T01:18:05.527Z,80.84
2018-02-22T01:19:05.533Z,81.88
2018-02-22T01:20:05.533Z,81.31
2018-02-22T01:21:05.536Z,80.46
2018-02-22T01:22:05.529Z,79.43
2018-02-22T01:23:05.536Z,79.71
2018-02-22T01:24:05.534Z,79.61
2018-02-22T01:25:05.536Z,80.08
2018-02-22T01:26:05.526Z,80.93
2018-02-22T01:27:05.534Z,81.69
2018-02-22T01:28:05.530Z,81.88
2018-02-22T01:29:05.533Z,82.63
2018-02-22T01:30:05.532Z,83.01
2018-02-22T01:31:05.533Z,82.92
2018-02-22T01:32:05.530Z,83.01
2018-02-22T01:33:05.531Z,83.10
2018-02-22T01:34:05.526Z,84.23
2018-02-22T01:35:05.534Z,83.95
2018-02-22T01:36:05.531Z,84.05
2018-02-22T01:37:05.528Z,83.58
2018-02-22T01:38:05.533Z,83.58
2018-02-22T01:39:05.525Z,83.67
2018-02-22T01:40:05.532Z,83.48
2018-02-22T01:41:05.529Z,83.01
2018-02-22T01:42:05.525Z,83.10
2018-02-22T01:43:05.526Z,83.10
2018-02-22T01:44:05.530Z,83.86
2018-02-22T01:45:05.527Z,84.23
2018-02-22T01:46:05.532Z,84.05
2018-02-22T01:47:05.530Z,85.55
2018-02-22T01:48:05.529Z,86.77
2018-02-22T01:49:05.524Z,87.72
2018-02-22T01:50:05.524Z,88.47
2018-02-22T01:51:05.533Z,88.38
2018-02-22T01:52:05.524Z,88.38
2018-02-22T01:53:05.524Z,87.91
2018-02-22T01:54:05.523Z,87.44
2018-02-22T01:55:05.524Z,86.49
2018-02-22T01:56:05.521Z,87.53
2018-02-22T01:57:05.528Z,88.00
2018-02-22T01:58:05.523Z,88.00
2018-02-22T01:59:05.522Z,87.81
2018-02-22T02:00:05.521Z,87.34
2018-02-22T02:01:05.523Z,86.40
2018-02-22T02:02:05.521Z,86.59
2018-02-22T02:03:05.527Z,86.21
2018-02-22T02:04:05.525Z,86.30
2018-02-22T02:05:05.521Z,86.02
2018-02-22T02:06:05.532Z,85.64
2018-02-22T02:07:05.521Z,86.02
2018-02-22T02:08:05.518Z,86.30
2018-02-22T02:09:05.519Z,86.59
2018-02-22T02:10:05.519Z,86.77
2018-02-22T02:11:05.523Z,86.68
2018-02-22T02:12:05.523Z,87.53
2018-02-22T02:13:05.522Z,87.25
2018-02-22T02:14:05.522Z,87.34
2018-02-22T02:15:05.527Z,86.77
2018-02-22T02:16:05.523Z,85.46
2018-02-22T02:17:05.515Z,84.33
2018-02-22T02:18:05.520Z,84.42
2018-02-22T02:19:05.522Z,83.95
2018-02-22T02:20:05.518Z,84.42
2018-02-22T02:21:05.518Z,84.80
2018-02-22T02:22:05.513Z,85.46
2018-02-22T02:23:05.519Z,86.02
2018-02-22T02:24:05.513Z,86.02
2018-02-22T02:25:05.517Z,85.55
2018-02-22T02:26:05.516Z,85.46
2018-02-22T02:27:05.517Z,86.02
2018-02-22T02:28:05.515Z,86.40
2018-02-22T02:29:05.508Z,86.30
2018-02-22T02:30:05.512Z,86.59
2018-02-22T02:31:05.513Z,86.02
2018-02-22T02:32:05.509Z,85.55
2018-02-22T02:33:05.512Z,85.46
2018-02-22T02:34:05.511Z,85.08
2018-02-22T02:35:05.504Z,84.99
2018-02-22T02:36:05.509Z,85.64
2018-02-22T02:37:05.503Z,85.64
2018-02-22T02:38:05.513Z,86.87
2018-02-22T02:39:05.508Z,86.68
2018-02-22T02:40:05.502Z,87.44
2018-02-22T02:41:05.510Z,87.81
2018-02-22T02:42:05.501Z,88.57
2018-02-22T02:43:05.505Z,88.38
2018-02-22T02:44:05.503Z,88.57
2018-02-22T02:45:05.506Z,89.04
2018-02-22T02:46:05.499Z,89.79
2018-02-22T02:47:05.497Z,90.26
2018-02-22T02:48:05.502Z,91.16
2018-02-22T02:49:05.498Z,91.30
2018-02-22T02:50:05.497Z,90.92
2018-02-22T02:51:05.500Z,91.20
2018-02-22T02:52:05.502Z,91.30
2018-02-22T02:53:05.493Z,91.16
2018-02-22T02:54:05.492Z,91.82
2018-02-22T02:55:05.496Z,92.38
2018-02-22T02:56:05.497Z,92.47
2018-02-22T02:57:05.490Z,92.47
2018-02-22T02:58:05.494Z,93.70
2018-02-22T02:59:05.494Z,93.89
2018-02-22T03:00:05.493Z,93.42
2018-02-22T03:01:05.534Z,93.98
2018-02-22T03:02:05.492Z,93.70
2018-02-22T03:03:05.486Z,93.79
2018-02-22T03:04:05.487Z,93.89
2018-02-22T03:05:05.487Z,92.76
2018-02-22T03:06:05.481Z,92.76
2018-02-22T03:07:05.481Z,93.04
2018-02-22T03:08:05.489Z,93.04
2018-02-22T03:09:05.483Z,93.04
2018-02-22T03:10:05.483Z,93.32
2018-02-22T03:11:05.476Z,92.66
2018-02-22T03:12:05.474Z,92.66
2018-02-22T03:13:05.474Z,92.95
2018-02-22T03:14:05.473Z,93.89
2018-02-22T03:15:05.478Z,94.08
2018-02-22T03:16:05.476Z,93.89
2018-02-22T03:17:05.476Z,94.55
2018-02-22T03:18:05.473Z,94.45
2018-02-22T03:19:05.474Z,94.27
2018-02-22T03:20:05.465Z,94.08
2018-02-22T03:21:05.464Z,93.61
2018-02-22T03:22:05.471Z,93.04
2018-02-22T03:23:05.467Z,92.19
2018-02-22T03:24:05.463Z,92.57
2018-02-22T03:25:05.468Z,91.16
2018-02-22T03:26:05.465Z,89.84
2018-02-22T03:27:05.457Z,89.18
2018-02-22T03:28:05.456Z,89.04
2018-02-22T03:29:05.455Z,88.47
2018-02-22T03:30:05.461Z,88.38
2018-02-22T03:31:05.455Z,88.57
2018-02-22T03:32:05.451Z,87.81
2018-02-22T03:33:05.450Z,87.72
2018-02-22T03:34:05.449Z,88.28
2018-02-22T03:35:05.448Z,88.10
2018-02-22T03:36:05.451Z,88.19
2018-02-22T03:37:05.451Z,87.72
2018-02-22T03:38:05.449Z,87.44
2018-02-22T03:39:05.449Z,87.06
2018-02-22T03:40:05.441Z,86.59
2018-02-22T03:41:05.441Z,86.49
2018-02-22T03:42:05.445Z,86.68
2018-02-22T03:43:05.438Z,86.68
2018-02-22T03:44:05.443Z,86.40
2018-02-22T03:45:05.435Z,86.30
2018-02-22T03:46:05.472Z,86.77
2018-02-22T03:47:05.434Z,87.53
2018-02-22T03:48:05.433Z,87.53
2018-02-22T03:49:05.431Z,87.44
2018-02-22T03:50:05.430Z,86.87
2018-02-22T03:51:05.435Z,87.06
2018-02-22T03:52:05.427Z,87.15
2018-02-22T03:53:05.426Z,87.53
2018-02-22T03:54:05.426Z,87.25
2018-02-22T03:55:05.425Z,86.77
2018-02-22T03:56:05.429Z,86.68
2018-02-22T03:57:05.428Z,86.59
2018-02-22T03:58:05.428Z,86.77
2018-02-22T03:59:05.420Z,86.40
2018-02-22T04:00:05.422Z,86.68
2018-02-22T04:01:05.418Z,86.02
2018-02-22T04:02:05.416Z,85.08
2018-02-22T04:03:05.416Z,85.64
2018-02-22T04:04:05.422Z,85.64
2018-02-22T04:05:05.422Z,85.17
2018-02-22T04:06:05.417Z,85.36
2018-02-22T04:07:05.410Z,85.36
2018-02-22T04:08:05.409Z,85.46
2018-02-22T04:09:05.408Z,85.55
2018-02-22T04:10:05.417Z,85.93
2018-02-22T04:11:05.409Z,86.87
2018-02-22T04:12:05.404Z,86.49
2018-02-22T04:13:05.404Z,86.02
2018-02-22T04:14:05.403Z,86.02
2018-02-22T04:15:05.402Z,86.49
2018-02-22T04:16:05.405Z,86.68
2018-02-22T04:17:05.406Z,86.40
2018-02-22T04:18:05.397Z,86.30
2018-02-22T04:19:05.397Z,87.30
2018-02-22T04:20:05.401Z,88.43
2018-02-22T04:21:05.400Z,89.56
2018-02-22T04:22:05.398Z,90.03
2018-02-22T04:23:05.398Z,89.94
2018-02-22T04:24:05.390Z,90.12
2018-02-22T04:25:05.392Z,89.94
2018-02-22T04:26:05.388Z,90.12
2018-02-22T04:27:05.393Z,89.75
2018-02-22T04:28:05.391Z,89.75
2018-02-22T04:29:05.390Z,89.28
2018-02-22T04:30:05.403Z,89.18
2018-02-22T04:31:05.381Z,89.56
2018-02-22T04:32:05.383Z,89.65
2018-02-22T04:33:05.388Z,89.75
2018-02-22T04:34:05.384Z,89.56
2018-02-22T04:35:05.377Z,89.00
2018-02-22T04:36:05.380Z,89.00
2018-02-22T04:37:05.373Z,87.77
2018-02-22T04:38:05.372Z,87.30
2018-02-22T04:39:05.377Z,87.77
2018-02-22T04:40:05.369Z,88.34
2018-02-22T04:41:05.374Z,88.34
2018-02-22T04:42:05.374Z,88.62
2018-02-22T04:43:05.370Z,88.52
2018-02-22T04:44:05.368Z,88.43
2018-02-22T04:45:05.363Z,87.49
2018-02-22T04:46:05.361Z,86.73
2018-02-22T04:47:05.359Z,86.36
2018-02-22T04:48:05.363Z,86.45
2018-02-22T04:49:05.363Z,86.64
2018-02-22T04:50:05.365Z,86.59
2018-02-22T04:51:05.354Z,86.49
2018-02-22T04:52:05.351Z,86.73
2018-02-22T04:53:05.358Z,86.87
2018-02-22T04:54:05.349Z,87.02
2018-02-22T04:55:05.348Z,87.53
2018-02-22T04:56:05.348Z,87.91
2018-02-22T04:57:05.350Z,87.30
2018-02-22T04:58:05.350Z,87.39
2018-02-22T04:59:05.342Z,87.96
2018-02-22T05:00:05.346Z,87.86
2018-02-22T05:01:05.346Z,88.24
2018-02-22T05:02:05.345Z,88.52
2018-02-22T05:03:05.345Z,88.52
2018-02-22T05:04:05.337Z,86.83
2018-02-22T05:05:05.337Z,83.91
2018-02-22T05:06:05.334Z,81.08
2018-02-22T05:07:05.337Z,79.67
2018-02-22T05:08:05.337Z,79.95
2018-02-22T05:09:05.335Z,80.99
2018-02-22T05:10:05.332Z,82.21
2018-02-22T05:11:05.326Z,83.10
2018-02-22T05:12:05.324Z,84.38
2018-02-22T05:13:05.329Z,84.19
2018-02-22T05:14:05.344Z,84.38
2018-02-22T05:15:05.326Z,84.28
2018-02-22T05:16:05.323Z,84.61
2018-02-22T05:17:05.324Z,83.86
2018-02-22T05:18:05.318Z,84.05
2018-02-22T05:19:05.321Z,84.23
2018-02-22T05:20:05.311Z,84.23
2018-02-22T05:21:05.315Z,84.42
2018-02-22T05:22:05.316Z,85.27
2018-02-22T05:23:05.316Z,85.55
2018-02-22T05:24:05.307Z,86.07
2018-02-22T05:25:05.308Z,85.98
2018-02-22T05:26:05.309Z,86.45
2018-02-22T05:27:05.349Z,86.64
2018-02-22T05:28:05.302Z,86.83
2018-02-22T05:29:05.306Z,86.92
2018-02-22T05:30:05.301Z,86.73
2018-02-22T05:31:05.306Z,86.83
2018-02-22T05:32:05.296Z,86.36
2018-02-22T05:33:05.297Z,86.54
2018-02-22T05:34:05.298Z,86.17
2018-02-22T05:35:05.298Z,86.64
2018-02-22T05:36:05.290Z,86.64
2018-02-22T05:37:05.288Z,86.45
2018-02-22T05:38:05.294Z,86.54
2018-02-22T05:39:05.292Z,86.36
2018-02-22T05:40:05.286Z,86.45
2018-02-22T05:41:05.284Z,86.36
2018-02-22T05:42:05.281Z,86.54
2018-02-22T05:43:05.286Z,86.54
2018-02-22T05:44:05.279Z,86.45
2018-02-22T05:45:05.287Z,86.64
2018-02-22T05:46:05.283Z,86.83
2018-02-22T05:47:05.281Z,87.02
2018-02-22T05:48:05.274Z,87.11
2018-02-22T05:49:05.278Z,87.20
2018-02-22T05:50:05.279Z,87.20
2018-02-22T05:51:05.270Z,86.73
2018-02-22T05:52:05.277Z,86.83
2018-02-22T05:53:05.272Z,86.83
2018-02-22T05:54:05.270Z,86.83
2018-02-22T05:55:05.264Z,86.64
2018-02-22T05:56:05.268Z,85.98
2018-02-22T05:57:05.260Z,85.60
2018-02-22T05:58:05.259Z,85.98
2018-02-22T05:59:05.269Z,85.22
2018-02-22T06:00:05.267Z,85.32
2018-02-22T06:01:05.259Z,85.22
2018-02-22T06:02:05.253Z,85.51
2018-02-22T06:03:05.253Z,86.54
2018-02-22T06:04:05.253Z,86.64
2018-02-22T06:05:05.254Z,86.83
2018-02-22T06:06:05.247Z,87.11
2018-02-22T06:07:05.246Z,87.68
2018-02-22T06:08:05.248Z,87.96
2018-02-22T06:09:05.244Z,88.15
2018-02-22T06:10:05.242Z,87.96
2018-02-22T06:11:05.241Z,88.15
2018-02-22T06:12:05.249Z,87.96
2018-02-22T06:13:05.236Z,87.49
2018-02-22T06:14:05.240Z,87.68
2018-02-22T06:15:05.240Z,87.58
2018-02-22T06:16:05.233Z,87.58
2018-02-22T06:17:05.240Z,86.73
2018-02-22T06:18:05.230Z,86.54
2018-02-22T06:19:05.229Z,85.98
2018-02-22T06:20:05.232Z,85.51
2018-02-22T06:21:05.229Z,85.60
2018-02-22T06:22:05.223Z,85.13
2018-02-22T06:23:05.222Z,84.75
2018-02-22T06:24:05.219Z,84.56
2018-02-22T06:25:05.222Z,84.94
2018-02-22T06:26:05.217Z,85.88
2018-02-22T06:27:05.215Z,86.64
2018-02-22T06:28:05.215Z,86.54
2018-02-22T06:29:05.218Z,86.54
2018-02-22T06:30:05.211Z,86.64
2018-02-22T06:31:05.210Z,85.79
2018-02-22T06:32:05.212Z,85.22
2018-02-22T06:33:05.206Z,84.56
2018-02-22T06:34:05.206Z,84.19
2018-02-22T06:35:05.204Z,84.38
2018-02-22T06:36:05.209Z,84.66
2018-02-22T06:37:05.200Z,84.28
2018-02-22T06:38:05.199Z,84.28
2018-02-22T06:39:05.198Z,84.66
2018-02-22T06:40:05.196Z,84.66
2018-02-22T06:41:05.194Z,85.60
2018-02-22T06:42:05.199Z,85.79
2018-02-22T06:43:05.197Z,86.26
2018-02-22T06:44:05.189Z,86.45
2018-02-22T06:45:05.189Z,86.17
2018-02-22T06:46:05.193Z,85.41
2018-02-22T06:47:05.191Z,84.94
2018-02-22T06:48:05.186Z,84.66
2018-02-22T06:49:05.188Z,84.94
2018-02-22T06:50:05.186Z,85.13
2018-02-22T06:51:05.185Z,84.75
2018-02-22T06:52:05.177Z,85.13
2018-02-22T06:53:05.183Z,84.38
2018-02-22T06:54:05.176Z,84.75
2018-02-22T06:55:05.182Z,85.51
2018-02-22T06:56:05.172Z,85.51
2018-02-22T06:57:05.184Z,85.51
2018-02-22T06:58:05.170Z,86.07
2018-02-22T06:59:05.177Z,86.45
2018-02-22T07:00:05.171Z,86.54
2018-02-22T07:01:05.168Z,86.54
2018-02-22T07:02:05.165Z,87.02
2018-02-22T07:03:05.163Z,87.02
2018-02-22T07:04:05.161Z,87.39
2018-02-22T07:05:05.159Z,86.92
2018-02-22T07:06:05.165Z,86.83
2018-02-22T07:07:05.161Z,87.49
2018-02-22T07:08:05.159Z,87.20
2018-02-22T07:09:05.158Z,87.02
2018-02-22T07:10:05.159Z,87.49
2018-02-22T07:11:05.156Z,87.02
2018-02-22T07:12:05.148Z,87.02
2018-02-22T07:13:05.148Z,87.49
2018-02-22T07:14:05.146Z,86.83
2018-02-22T07:15:05.145Z,86.07
2018-02-22T07:16:05.147Z,86.77
2018-02-22T07:17:05.142Z,86.77
2018-02-22T07:18:05.144Z,87.02
2018-02-22T07:19:05.140Z,87.68
2018-02-22T07:20:05.137Z,88.52
2018-02-22T07:21:05.138Z,89.09
2018-02-22T07:22:05.134Z,88.90
2018-02-22T07:23:16.649Z,89.09
2018-02-22T07:24:05.132Z,88.81
2018-02-22T07:25:05.129Z,89.00
2018-02-22T07:26:05.127Z,88.81
2018-02-22T07:27:05.126Z,89.37
2018-02-22T07:28:05.128Z,90.12
2018-02-22T07:29:05.120Z,90.69
2018-02-22T07:30:05.126Z,91.16
2018-02-22T07:31:05.119Z,91.06
2018-02-22T07:32:05.116Z,92.10
2018-02-22T07:33:05.121Z,92.00
2018-02-22T07:34:05.162Z,91.53
2018-02-22T07:35:05.248Z,91.06
2018-02-22T07:36:05.119Z,91.16
2018-02-22T07:37:05.108Z,90.41
2018-02-22T07:38:05.107Z,90.03
2018-02-22T07:39:05.112Z,89.84
2018-02-22T07:40:05.108Z,89.75
2018-02-22T07:41:05.107Z,89.75
2018-02-22T07:42:05.106Z,90.31
2018-02-22T07:43:05.112Z,90.50
2018-02-22T07:44:05.099Z,90.50
2018-02-22T07:45:05.103Z,91.16
2018-02-22T07:46:05.102Z,91.06
2018-02-22T07:47:05.102Z,91.06
2018-02-22T07:48:05.098Z,91.25
2018-02-22T07:49:05.095Z,91.35
2018-02-22T07:50:05.095Z,90.41
2018-02-22T07:51:05.093Z,90.69
2018-02-22T07:52:05.086Z,90.03
2018-02-22T07:53:05.089Z,89.37
2018-02-22T07:54:05.087Z,89.37
2018-02-22T07:55:05.082Z,88.71
2018-02-22T07:56:05.085Z,89.47
2018-02-22T07:57:05.077Z,90.22
2018-02-22T07:58:05.082Z,91.82
2018-02-22T07:59:05.075Z,92.00
2018-02-22T08:00:05.113Z,91.91
2018-02-22T08:01:05.083Z,92.00
2018-02-22T08:02:05.077Z,91.72
2018-02-22T08:03:05.068Z,92.19
2018-02-22T08:04:05.070Z,92.00
2018-02-22T08:05:05.070Z,92.57
2018-02-22T08:06:05.068Z,92.38
2018-02-22T08:07:05.062Z,92.47
2018-02-22T08:08:05.064Z,92.29
2018-02-22T08:09:05.063Z,92.76
2018-02-22T08:10:05.062Z,92.19
2018-02-22T08:11:05.062Z,91.53
2018-02-22T08:12:05.057Z,91.20
2018-02-22T08:13:05.060Z,90.55
2018-02-22T08:14:05.053Z,89.89
2018-02-22T08:15:05.051Z,89.04
2018-02-22T08:16:05.051Z,88.57
2018-02-22T08:17:05.046Z,88.38
2018-02-22T08:18:05.048Z,88.66
2018-02-22T08:19:05.047Z,88.85
2018-02-22T08:20:05.040Z,88.28
2018-02-22T08:21:05.042Z,88.66
2018-02-22T08:22:05.041Z,89.04
2018-02-22T08:23:05.057Z,88.47
2018-02-22T08:24:05.036Z,88.57
2018-02-22T08:25:05.037Z,89.04
2018-02-22T08:26:05.033Z,89.51
2018-02-22T08:27:05.038Z,88.85
2018-02-22T08:28:05.029Z,88.57
2018-02-22T08:29:05.033Z,88.57
2018-02-22T08:30:05.026Z,87.15
2018-02-22T08:31:05.032Z,86.87
2018-02-22T08:32:05.029Z,88.47
2018-02-22T08:33:05.023Z,89.23
2018-02-22T08:34:05.028Z,88.66
2018-02-22T08:35:05.022Z,88.38
2018-02-22T08:36:05.019Z,88.00
2018-02-22T08:37:05.019Z,88.47
2018-02-22T08:38:05.017Z,87.72
2018-02-22T08:39:05.022Z,86.87
2018-02-22T08:40:05.026Z,86.16
2018-02-22T08:41:05.015Z,85.88
2018-02-22T08:42:05.021Z,85.78
2018-02-22T08:43:05.021Z,84.99
2018-02-22T08:44:05.012Z,85.27
2018-02-22T08:45:05.018Z,85.83
2018-02-22T08:46:05.017Z,85.55
2018-02-22T08:47:05.017Z,84.94
2018-02-22T08:48:05.015Z,84.94
2018-02-22T08:49:05.015Z,85.50
2018-02-22T08:50:05.010Z,85.60
2018-02-22T08:51:05.009Z,84.84
2018-02-22T08:52:05.012Z,84.80
2018-02-22T08:53:05.013Z,85.36
2018-02-22T08:54:05.008Z,86.82
2018-02-22T08:55:05.008Z,87.72
2018-02-22T08:56:05.010Z,87.38
2018-02-22T08:57:05.008Z,86.54
2018-02-22T08:58:05.007Z,86.54
2018-02-22T08:59:05.006Z,85.60
2018-02-22T09:00:05.013Z,84.47
2018-02-22T09:01:05.011Z,85.22
2018-02-22T09:02:05.007Z,84.18
2018-02-22T09:03:05.039Z,84.75
2018-02-22T09:04:05.013Z,84.28
2018-02-22T09:05:05.007Z,83.24
2018-02-22T09:06:05.007Z,83.14
2018-02-22T09:07:05.013Z,82.95
2018-02-22T09:08:05.008Z,83.05
2018-02-22T09:09:05.008Z,82.48
2018-02-22T09:10:05.008Z,81.73
2018-02-22T09:11:05.007Z,81.82
2018-02-22T09:12:05.008Z,83.52
2018-02-22T09:13:05.013Z,83.61
2018-02-22T09:14:05.009Z,84.18
2018-02-22T09:15:05.015Z,84.56
2018-02-22T09:16:05.015Z,83.61
2018-02-22T09:17:05.009Z,84.94
2018-02-22T09:18:05.011Z,85.78
2018-02-22T09:19:05.010Z,84.65
2018-02-22T09:20:05.011Z,86.63
2018-02-22T09:21:05.018Z,85.69
2018-02-22T09:22:05.020Z,83.99
2018-02-22T09:23:05.013Z,83.52
2018-02-22T09:24:05.015Z,83.05
2018-02-22T09:25:05.014Z,82.29
2018-02-22T09:26:05.018Z,81.92
2018-02-22T09:27:05.020Z,82.58
2018-02-22T09:28:05.019Z,80.98
2018-02-22T09:29:05.020Z,80.60
2018-02-22T09:30:05.021Z,79.66
2018-02-22T09:31:05.021Z,79.19
2018-02-22T09:32:05.016Z,79.47
2018-02-22T09:33:05.016Z,78.90
2018-02-22T09:34:05.021Z,79.09
2018-02-22T09:35:05.022Z,79.98
2018-02-22T09:36:05.023Z,79.69
2018-02-22T09:37:05.024Z,80.07
2018-02-22T09:38:05.018Z,78.47
2018-02-22T09:39:05.023Z,77.81
2018-02-22T09:40:05.025Z,76.30
2018-02-22T09:41:05.025Z,75.73
2018-02-22T09:42:05.021Z,76.21
2018-02-22T09:43:05.037Z,77.25
2018-02-22T09:44:05.023Z,77.15
2018-02-22T09:45:05.024Z,76.30
2018-02-22T09:46:05.031Z,75.79
2018-02-22T09:47:05.031Z,75.60
2018-02-22T09:48:05.033Z,76.26
2018-02-22T09:49:05.028Z,76.82
2018-02-22T09:50:05.038Z,76.77
2018-02-22T09:51:05.038Z,76.77
2018-02-22T09:52:05.037Z,76.68
2018-02-22T09:53:05.037Z,76.77
2018-02-22T09:54:05.041Z,76.77
2018-02-22T09:55:05.036Z,76.45
2018-02-22T09:56:05.038Z,77.53
2018-02-22T09:57:05.042Z,76.68
2018-02-22T09:58:05.047Z,76.30
2018-02-22T09:59:05.045Z,76.11
2018-02-22T10:00:05.041Z,76.02
2018-02-22T10:01:05.048Z,74.69
2018-02-22T10:02:05.043Z,74.79
2018-02-22T10:03:05.046Z,74.69
2018-02-22T10:04:05.046Z,74.88
2018-02-22T10:05:05.052Z,74.79
2018-02-22T10:06:05.058Z,74.41
2018-02-22T10:07:05.050Z,72.62
2018-02-22T10:08:05.056Z,72.62
2018-02-22T10:09:05.053Z,71.30
2018-02-22T10:10:05.062Z,71.87
2018-02-22T10:11:05.060Z,72.62
2018-02-22T10:12:05.064Z,73.28
2018-02-22T10:13:05.071Z,73.85
2018-02-22T10:14:05.061Z,74.60
2018-02-22T10:15:05.067Z,74.79
2018-02-22T10:16:05.067Z,74.41
2018-02-22T10:17:05.068Z,74.51
2018-02-22T10:18:05.077Z,73.66
2018-02-22T10:19:05.071Z,73.10
2018-02-22T10:20:05.072Z,72.15
2018-02-22T10:21:05.079Z,73.00
2018-02-22T10:22:05.074Z,73.19
2018-02-22T10:23:05.076Z,74.41
2018-02-22T10:24:05.085Z,75.07
2018-02-22T10:25:05.080Z,74.07
2018-02-22T10:26:05.088Z,72.19
2018-02-22T10:27:05.088Z,70.87
2018-02-22T10:28:05.089Z,71.25
2018-02-22T10:29:05.087Z,71.21
2018-02-22T10:30:05.089Z,71.21
2018-02-22T10:31:05.092Z,71.30
2018-02-22T10:32:05.101Z,72.15
2018-02-22T10:33:05.101Z,73.94
2018-02-22T10:34:05.097Z,74.04
2018-02-22T10:35:05.100Z,73.57
2018-02-22T10:36:05.106Z,73.88
2018-02-22T10:37:05.110Z,72.38
2018-02-22T10:38:05.110Z,72.09
2018-02-22T10:39:05.132Z,70.68
2018-02-22T10:40:05.110Z,70.39
2018-02-22T10:41:05.114Z,70.77
2018-02-22T10:42:05.117Z,71.72
2018-02-22T10:43:05.123Z,72.28
2018-02-22T10:44:05.119Z,72.85
2018-02-22T10:45:05.127Z,72.56
2018-02-22T10:46:05.125Z,73.13
2018-02-22T10:47:05.127Z,72.38
2018-02-22T10:48:05.135Z,72.44
2018-02-22T10:49:05.137Z,74.51
2018-02-22T10:50:05.145Z,75.17
2018-02-22T10:51:05.146Z,75.21
2018-02-22T10:52:05.139Z,75.21
2018-02-22T10:53:05.150Z,74.64
2018-02-22T10:54:05.147Z,74.07
2018-02-22T10:55:05.150Z,73.79
2018-02-22T10:56:05.166Z,73.88
2018-02-22T10:57:05.156Z,74.36
2018-02-22T10:58:05.159Z,74.32
2018-02-22T10:59:05.170Z,74.55
2018-02-22T11:00:05.164Z,74.83
2018-02-22T11:01:05.171Z,74.92
2018-02-22T11:02:05.168Z,74.26
2018-02-22T11:03:05.175Z,73.13
2018-02-22T11:04:05.178Z,71.72
2018-02-22T11:05:05.176Z,72.38
2018-02-22T11:06:05.184Z,72.81
2018-02-22T11:07:05.182Z,73.75
2018-02-22T11:08:05.183Z,74.07
2018-02-22T11:09:05.187Z,74.64
2018-02-22T11:10:05.196Z,74.45
2018-02-22T11:11:05.200Z,73.60
2018-02-22T11:12:05.199Z,72.85
2018-02-22T11:13:05.205Z,72.28
2018-02-22T11:14:05.201Z,71.15
2018-02-22T11:15:05.206Z,70.77
2018-02-22T11:16:05.214Z,70.96
2018-02-22T11:17:05.217Z,70.96
2018-02-22T11:18:05.224Z,71.34
2018-02-22T11:19:05.229Z,71.72
2018-02-22T11:20:05.221Z,71.15
2018-02-22T11:21:05.228Z,71.72
2018-02-22T11:22:05.232Z,71.15
2018-02-22T11:23:05.232Z,71.34
2018-02-22T11:24:05.237Z,71.25
2018-02-22T11:25:05.238Z,71.15
2018-02-22T11:26:05.247Z,70.11
2018-02-22T11:27:05.245Z,70.02
2018-02-22T11:28:05.251Z,70.49
2018-02-22T11:29:05.255Z,71.25
2018-02-22T11:30:05.253Z,70.20
2018-02-22T11:31:05.264Z,70.96
2018-02-22T11:32:05.269Z,70.77
2018-02-22T11:33:05.262Z,70.77
2018-02-22T11:34:05.267Z,70.15
2018-02-22T11:35:05.285Z,70.15
2018-02-22T11:36:05.277Z,70.05
2018-02-22T11:37:05.281Z,68.16
2018-02-22T11:38:05.283Z,68.04
2018-02-22T11:39:05.288Z,68.70
2018-02-22T11:40:05.290Z,69.26
2018-02-22T11:41:05.288Z,69.58
2018-02-22T11:42:05.292Z,69.49
2018-02-22T11:43:05.296Z,69.26
2018-02-22T11:44:05.309Z,68.51
2018-02-22T11:45:05.306Z,68.73
2018-02-22T11:46:05.306Z,68.82
2018-02-22T11:47:05.319Z,67.97
2018-02-22T11:48:05.317Z,67.88
2018-02-22T11:49:05.324Z,68.16
2018-02-22T11:50:05.325Z,67.13
2018-02-22T11:51:05.323Z,66.75
2018-02-22T11:52:05.336Z,65.23
2018-02-22T11:53:05.332Z,62.31
2018-02-22T11:54:05.334Z,59.67
2018-02-22T11:55:05.344Z,61.36
2018-02-22T11:56:05.346Z,62.21
2018-02-22T11:57:05.350Z,63.54
2018-02-22T11:58:05.350Z,64.39
2018-02-22T11:59:05.360Z,64.39
2018-02-22T12:00:05.362Z,63.73
2018-02-22T12:01:05.361Z,61.55
2018-02-22T12:02:05.363Z,58.63
2018-02-22T12:03:05.371Z,59.57
2018-02-22T12:04:05.372Z,60.52
2018-02-22T12:05:05.385Z,60.33
2018-02-22T12:06:05.380Z,61.46
2018-02-22T12:07:05.385Z,62.21
2018-02-22T12:08:05.392Z,62.69
2018-02-22T12:09:05.393Z,64.20
2018-02-22T12:10:05.402Z,66.56
2018-02-22T12:11:05.401Z,67.22
2018-02-22T12:12:05.406Z,67.97
2018-02-22T12:13:05.413Z,68.44
2018-02-22T12:14:05.411Z,67.88
2018-02-22T12:15:05.422Z,67.41
2018-02-22T12:16:05.421Z,66.56
2018-02-22T12:17:05.428Z,66.18
2018-02-22T12:18:05.438Z,66.09
2018-02-22T12:19:05.439Z,67.88
2018-02-22T12:20:05.440Z,68.26
2018-02-22T12:21:05.448Z,67.13
2018-02-22T12:22:05.450Z,67.41
2018-02-22T12:23:05.455Z,66.94
2018-02-22T12:24:05.458Z,68.16
2018-02-22T12:25:05.510Z,67.88
2018-02-22T12:26:05.466Z,68.16
2018-02-22T12:27:05.465Z,68.16
2018-02-22T12:28:05.474Z,66.09
2018-02-22T12:29:05.480Z,61.65
2018-02-22T12:30:05.484Z,59.41
2018-02-22T12:31:05.489Z,59.41
2018-02-22T12:32:05.486Z,58.84
2018-02-22T12:33:05.495Z,60.36
2018-02-22T12:34:05.497Z,62.31
2018-02-22T12:35:05.505Z,63.63
2018-02-22T12:36:05.503Z,63.82
2018-02-22T12:37:05.507Z,65.05
2018-02-22T12:38:05.524Z,65.71
2018-02-22T12:39:05.515Z,65.65
2018-02-22T12:40:05.527Z,64.61
2018-02-22T12:41:05.529Z,64.79
2018-02-22T12:42:05.530Z,64.32
2018-02-22T12:43:05.536Z,63.67
2018-02-22T12:44:05.543Z,64.29
2018-02-22T12:45:05.548Z,66.47
2018-02-22T12:46:05.550Z,67.88
2018-02-22T12:47:05.557Z,67.32
2018-02-22T12:48:05.560Z,66.78
2018-02-22T12:49:05.561Z,65.93
2018-02-22T12:50:05.570Z,64.79
2018-02-22T12:51:05.571Z,63.57
2018-02-22T12:52:05.579Z,63.57